Time;durP1;ratioP1;P1;durP2;ratioP2;P2;SDS_P1;SDS_P2;PMS_P1;PMS_P2;Temp;Humidity;BMP_temperature;BMP_pressure;BME280_temperature;BME280_humidity;BME280_pressure;Samples;Min_cycle;Max_cycle;Signal;HPM_P1;HPM_P2
2023/09/19 00:03:01;;;;;;;20.40;5.05;;;;;;;;;;10076027;28;20084;-70
2023/09/19 00:07:54;;;;;;;35.55;6.70;;;;;;;;;;10073542;28;20516;-70
2023/09/19 00:12:46;;;;;;;15.60;4.18;;;;;;;;;;10072083;28;20083;-71
2023/09/19 00:17:40;;;;;;;17.02;4.75;;;;;;;;;;10075502;28;20133;-71
2023/09/19 00:22:32;;;;;;;21.23;4.95;;;;;;;;;;10071822;28;20044;-70
2023/09/19 00:27:24;;;;;;;23.27;4.72;;;;;;;;;;10074547;28;20054;-70
2023/09/19 00:32:16;;;;;;;19.13;4.97;;;;;;;;;;10070402;28;20042;-71
2023/09/19 00:37:08;;;;;;;23.77;6.07;;;;;;;;;;10082752;28;20045;-71
2023/09/19 00:42:05;;;;;;;15.55;4.63;;;;;;;;;;10071364;28;20033;-71
2023/09/19 00:46:57;;;;;;;17.35;3.85;;;;;;;;;;10073405;28;20041;-69
2023/09/19 00:51:49;;;;;;;19.02;5.00;;;;;;;;;;10070769;28;20046;-69
2023/09/19 00:56:42;;;;;;;24.30;5.07;;;;;;;;;;10047647;28;20104;-70
2023/09/19 01:01:34;;;;;;;14.68;4.47;;;;;;;;;;10060781;28;20129;-70
2023/09/19 01:06:27;;;;;;;24.02;4.72;;;;;;;;;;10057533;28;20046;-69
2023/09/19 01:11:28;;;;;;;18.65;6.13;;;;;;;;;;10080727;28;20041;-70
2023/09/19 01:16:42;;;;;;;14.60;4.75;;;;;;;;;;10055362;28;20049;-70
2023/09/19 01:22:25;;;;;;;18.45;4.78;;;;;;;;;;10065332;28;20083;-69
2023/09/19 01:27:23;;;;;;;13.68;4.35;;;;;;;;;;10014788;28;20123;-70
2023/09/19 01:32:24;;;;;;;20.60;5.18;;;;;;;;;;10066628;28;20041;-71
2023/09/19 01:37:20;;;;;;;19.58;4.43;;;;;;;;;;10045895;28;20471;-70
2023/09/19 01:42:16;;;;;;;23.92;4.55;;;;;;;;;;10068279;28;20049;-71
2023/09/19 01:47:17;;;;;;;20.52;6.05;;;;;;;;;;10051025;28;20463;-71
2023/09/19 01:52:13;;;;;;;13.40;5.85;;;;;;;;;;10051918;28;20041;-70
2023/09/19 01:57:17;;;;;;;15.18;5.43;;;;;;;;;;10071239;28;20494;-70
2023/09/19 02:02:09;;;;;;;15.90;6.05;;;;;;;;;;10069291;28;20042;-70
2023/09/19 02:07:02;;;;;;;19.48;6.07;;;;;;;;;;10052200;28;20041;-69
2023/09/19 02:11:56;;;;;;;18.85;8.25;;;;;;;;;;10067207;28;20081;-70
2023/09/19 02:16:49;;;;;;;15.88;6.78;;;;;;;;;;10050295;28;20387;-70
2023/09/19 02:21:41;;;;;;;15.48;6.35;;;;;;;;;;10068483;28;20045;-70
2023/09/19 02:26:36;;;;;;;24.30;7.13;;;;;;;;;;10060667;28;20053;-71
2023/09/19 02:31:31;;;;;;;24.23;8.30;;;;;;;;;;10068258;28;20131;-70
2023/09/19 02:36:23;;;;;;;22.23;7.90;;;;;;;;;;10075358;28;20050;-71
2023/09/19 02:41:15;;;;;;;16.92;6.47;;;;;;;;;;10068116;28;20044;-71
2023/09/19 02:46:07;;;;;;;13.52;7.10;;;;;;;;;;10076837;28;20068;-72
2023/09/19 02:50:59;;;;;;;14.10;6.38;;;;;;;;;;10049454;28;20053;-68
2023/09/19 02:55:52;;;;;;;14.10;5.97;;;;;;;;;;10075806;28;20489;-71
2023/09/19 03:00:49;;;;;;;19.65;6.10;;;;;;;;;;10066545;28;20042;-70
2023/09/19 03:05:46;;;;;;;12.20;6.03;;;;;;;;;;10047601;28;20546;-71
2023/09/19 03:10:40;;;;;;;18.50;7.38;;;;;;;;;;10048637;28;20091;-69
2023/09/19 03:15:32;;;;;;;18.52;6.30;;;;;;;;;;10057852;28;20136;-71
2023/09/19 03:20:25;;;;;;;13.63;5.35;;;;;;;;;;10048262;28;20395;-71
2023/09/19 03:25:17;;;;;;;21.98;6.40;;;;;;;;;;10071136;28;20140;-70
2023/09/19 03:30:15;;;;;;;22.27;6.00;;;;;;;;;;10055534;28;20046;-69
2023/09/19 03:35:07;;;;;;;15.32;4.93;;;;;;;;;;10064161;28;20049;-71
2023/09/19 03:40:04;;;;;;;13.77;5.18;;;;;;;;;;10055405;28;20081;-71
2023/09/19 03:44:57;;;;;;;10.57;4.85;;;;;;;;;;10045836;28;20036;-70
2023/09/19 03:49:49;;;;;;;10.55;4.53;;;;;;;;;;10082043;28;20514;-70
2023/09/19 03:54:41;;;;;;;11.38;4.65;;;;;;;;;;10055617;28;20052;-71
2023/09/19 03:59:35;;;;;;;17.38;3.72;;;;;;;;;;10074761;28;20455;-69
2023/09/19 04:04:29;;;;;;;17.27;4.82;;;;;;;;;;10052416;28;20136;-69
2023/09/19 04:09:21;;;;;;;10.25;3.95;;;;;;;;;;10077912;28;20371;-70
2023/09/19 04:14:13;;;;;;;20.05;4.38;;;;;;;;;;10071391;28;20375;-71
2023/09/19 04:19:05;;;;;;;8.80;4.10;;;;;;;;;;10061769;28;20084;-70
2023/09/19 04:23:57;;;;;;;10.23;4.90;;;;;;;;;;10071591;28;20041;-71
2023/09/19 04:28:49;;;;;;;14.10;4.13;;;;;;;;;;10063361;28;20052;-69
2023/09/19 04:33:43;;;;;;;7.35;3.17;;;;;;;;;;10095895;28;20083;-70
2023/09/19 04:38:35;;;;;;;12.23;4.50;;;;;;;;;;10079132;28;20103;-71
2023/09/19 04:43:28;;;;;;;8.40;3.63;;;;;;;;;;10078756;28;20057;-70
2023/09/19 04:48:20;;;;;;;12.70;4.05;;;;;;;;;;10116306;28;20053;-69
2023/09/19 04:53:12;;;;;;;11.25;3.40;;;;;;;;;;10101900;28;20049;-70
2023/09/19 04:58:04;;;;;;;10.95;3.88;;;;;;;;;;10111106;28;20053;-70
2023/09/19 05:02:56;;;;;;;10.50;3.92;;;;;;;;;;10092499;28;20041;-69
2023/09/19 05:07:51;;;;;;;9.07;3.75;;;;;;;;;;10102358;28;20075;-71
2023/09/19 05:12:45;;;;;;;14.82;5.40;;;;;;;;;;10090058;28;20390;-70
2023/09/19 05:17:38;;;;;;;10.55;3.70;;;;;;;;;;10099258;28;20053;-70
2023/09/19 05:22:31;;;;;;;10.00;4.40;;;;;;;;;;10067188;28;20488;-71
2023/09/19 05:27:23;;;;;;;16.67;5.68;;;;;;;;;;10092807;28;20419;-73
2023/09/19 05:32:15;;;;;;;12.88;5.82;;;;;;;;;;10100903;28;20437;-73
2023/09/19 05:37:08;;;;;;;12.90;5.43;;;;;;;;;;10062512;28;20061;-73
2023/09/19 05:42:00;;;;;;;9.65;3.75;;;;;;;;;;10068329;28;20111;-73
2023/09/19 05:46:56;;;;;;;12.60;3.75;;;;;;;;;;10080163;28;20119;-73
2023/09/19 05:51:48;;;;;;;7.82;3.95;;;;;;;;;;10063145;28;20045;-73
2023/09/19 05:56:41;;;;;;;10.95;3.72;;;;;;;;;;10064540;28;20041;-73
2023/09/19 06:01:34;;;;;;;8.98;3.42;;;;;;;;;;10065538;28;20111;-74
2023/09/19 06:06:26;;;;;;;8.65;3.78;;;;;;;;;;10064695;28;20376;-74
2023/09/19 06:11:20;;;;;;;13.07;5.03;;;;;;;;;;10063307;28;20125;-74
2023/09/19 06:16:12;;;;;;;8.88;4.13;;;;;;;;;;10062185;28;20057;-73
2023/09/19 06:21:07;;;;;;;9.98;4.25;;;;;;;;;;10065603;28;20052;-74
2023/09/19 06:25:59;;;;;;;13.60;5.55;;;;;;;;;;10050396;28;20055;-72
2023/09/19 06:30:51;;;;;;;9.07;4.20;;;;;;;;;;10062109;28;20118;-73
2023/09/19 06:35:44;;;;;;;9.80;4.93;;;;;;;;;;10063796;28;20145;-73
2023/09/19 06:40:36;;;;;;;17.67;7.53;;;;;;;;;;10053221;28;20159;-73
2023/09/19 06:45:28;;;;;;;14.43;6.13;;;;;;;;;;10072867;28;20045;-73
2023/09/19 06:50:25;;;;;;;22.00;9.88;;;;;;;;;;10075933;28;20049;-72
2023/09/19 06:55:19;;;;;;;18.85;10.85;;;;;;;;;;10069778;28;20528;-73
2023/09/19 07:00:15;;;;;;;20.23;12.20;;;;;;;;;;10071391;28;20474;-73
2023/09/19 07:05:07;;;;;;;32.45;14.43;;;;;;;;;;10063337;28;20426;-73
2023/09/19 07:09:59;;;;;;;28.73;14.98;;;;;;;;;;10075728;28;20049;-69
2023/09/19 07:14:51;;;;;;;27.48;14.45;;;;;;;;;;10083260;28;20134;-71
2023/09/19 07:19:43;;;;;;;25.08;14.77;;;;;;;;;;10077557;28;20128;-71
2023/09/19 07:24:36;;;;;;;19.30;14.77;;;;;;;;;;10070705;28;20497;-72
2023/09/19 07:29:28;;;;;;;28.98;16.10;;;;;;;;;;10068712;28;20076;-72
2023/09/19 07:34:22;;;;;;;27.58;16.27;;;;;;;;;;10067176;28;20049;-71
2023/09/19 07:39:14;;;;;;;30.75;16.17;;;;;;;;;;10049694;28;20189;-72
2023/09/19 07:44:14;;;;;;;27.67;15.02;;;;;;;;;;10067750;28;20111;-72
2023/09/19 07:49:06;;;;;;;30.75;16.75;;;;;;;;;;10069453;28;20093;-71
2023/09/19 07:53:58;;;;;;;31.15;16.08;;;;;;;;;;10069113;28;20053;-72
2023/09/19 07:58:50;;;;;;;25.73;15.95;;;;;;;;;;10069512;28;20069;-71
2023/09/19 08:03:43;;;;;;;23.17;15.85;;;;;;;;;;10068837;28;20482;-72
2023/09/19 08:08:38;;;;;;;23.25;14.57;;;;;;;;;;10070508;28;20049;-72
2023/09/19 08:13:31;;;;;;;42.53;18.08;;;;;;;;;;10078009;28;20997;-71
2023/09/19 08:18:22;;;;;;;32.40;14.88;;;;;;;;;;10067883;28;20518;-71
2023/09/19 08:23:17;;;;;;;27.00;15.00;;;;;;;;;;10068913;28;20132;-71
2023/09/19 08:28:12;;;;;;;26.85;15.57;;;;;;;;;;10068972;28;20061;-71
2023/09/19 08:33:04;;;;;;;22.52;12.70;;;;;;;;;;10067896;28;20365;-71
2023/09/19 08:37:56;;;;;;;24.58;11.93;;;;;;;;;;10067900;28;20149;-70
2023/09/19 08:42:55;;;;;;;21.45;11.65;;;;;;;;;;10073485;28;20196;-71
2023/09/19 08:47:55;;;;;;;28.85;12.40;;;;;;;;;;10066699;28;20045;-73
2023/09/19 08:52:51;;;;;;;20.95;11.65;;;;;;;;;;10067843;28;20041;-73
2023/09/19 08:57:44;;;;;;;17.27;12.10;;;;;;;;;;10050306;28;20474;-72
2023/09/19 09:02:40;;;;;;;13.50;8.57;;;;;;;;;;10065513;28;20054;-72
2023/09/19 09:07:34;;;;;;;15.75;10.55;;;;;;;;;;10068124;28;20423;-71
2023/09/19 09:12:26;;;;;;;28.23;10.63;;;;;;;;;;10066330;28;20072;-71
2023/09/19 09:17:20;;;;;;;23.80;10.23;;;;;;;;;;10048631;28;20073;-73
2023/09/19 09:22:12;;;;;;;19.08;8.50;;;;;;;;;;10068121;28;21130;-72
2023/09/19 09:27:05;;;;;;;21.02;8.23;;;;;;;;;;10048552;28;20542;-72
2023/09/19 09:32:18;;;;;;;17.92;9.93;;;;;;;;;;10067776;28;20077;-73
2023/09/19 09:37:19;;;;;;;21.73;8.10;;;;;;;;;;10065024;28;20477;-72
2023/09/19 09:42:31;;;;;;;23.15;10.05;;;;;;;;;;10067414;28;20174;-72
2023/09/19 09:47:57;;;;;;;12.30;7.13;;;;;;;;;;10066497;28;20504;-73
2023/09/19 09:52:49;;;;;;;17.08;9.75;;;;;;;;;;10065002;28;20041;-70
2023/09/19 09:57:41;;;;;;;16.35;9.27;;;;;;;;;;10064564;28;20072;-71
2023/09/19 10:02:40;;;;;;;15.38;7.80;;;;;;;;;;10068237;28;20045;-71
2023/09/19 10:07:38;;;;;;;20.40;8.40;;;;;;;;;;10064421;28;20042;-72
2023/09/19 10:12:38;;;;;;;15.55;10.10;;;;;;;;;;10071366;28;20048;-71
2023/09/19 10:17:31;;;;;;;19.08;10.10;;;;;;;;;;10064308;28;20084;-71
2023/09/19 10:22:26;;;;;;;19.77;9.48;;;;;;;;;;10048620;28;20045;-69
2023/09/19 10:27:22;;;;;;;25.70;9.38;;;;;;;;;;10064651;28;20418;-70
2023/09/19 10:32:18;;;;;;;21.40;10.55;;;;;;;;;;10044842;28;20084;-70
2023/09/19 10:37:12;;;;;;;34.45;13.27;;;;;;;;;;10048556;28;20115;-67
2023/09/19 10:42:06;;;;;;;21.90;9.63;;;;;;;;;;10064859;28;20049;-67
2023/09/19 10:46:59;;;;;;;15.25;11.05;;;;;;;;;;10061775;28;20432;-70
2023/09/19 10:51:58;;;;;;;16.67;8.50;;;;;;;;;;10060711;28;20551;-69
2023/09/19 10:56:51;;;;;;;18.08;9.65;;;;;;;;;;10042472;28;20388;-70
2023/09/19 11:01:56;;;;;;;27.48;13.88;;;;;;;;;;10043269;28;20038;-69
2023/09/19 11:07:10;;;;;;;17.02;9.88;;;;;;;;;;10063527;28;20526;-69
2023/09/19 11:12:03;;;;;;;21.42;11.48;;;;;;;;;;10067035;28;20053;-70
2023/09/19 11:17:07;;;;;;;14.32;10.45;;;;;;;;;;10063688;28;20049;-70
2023/09/19 11:21:59;;;;;;;24.63;13.48;;;;;;;;;;10063818;28;20419;-70
2023/09/19 11:26:53;;;;;;;20.48;12.95;;;;;;;;;;10062434;28;20045;-70
2023/09/19 11:31:48;;;;;;;18.75;11.35;;;;;;;;;;10074086;28;20049;-68
2023/09/19 11:36:41;;;;;;;18.10;12.38;;;;;;;;;;10076135;28;20076;-69
2023/09/19 11:41:38;;;;;;;20.70;12.27;;;;;;;;;;10072265;28;20049;-70
2023/09/19 11:46:33;;;;;;;25.60;12.50;;;;;;;;;;10074594;28;20041;-70
2023/09/19 11:51:26;;;;;;;16.92;12.82;;;;;;;;;;10086366;28;20132;-70
2023/09/19 11:56:25;;;;;;;20.52;12.90;;;;;;;;;;10080432;28;20106;-68
2023/09/19 12:01:24;;;;;;;20.92;11.38;;;;;;;;;;10077935;28;20033;-70
2023/09/19 12:06:16;;;;;;;21.92;12.20;;;;;;;;;;10050938;28;20042;-70
2023/09/19 12:11:12;;;;;;;25.17;10.63;;;;;;;;;;10075605;28;20037;-69
2023/09/19 12:16:14;;;;;;;26.10;12.15;;;;;;;;;;10082400;28;20053;-68
2023/09/19 12:21:07;;;;;;;23.55;11.35;;;;;;;;;;10078470;28;20049;-69
2023/09/19 12:26:12;;;;;;;14.02;8.98;;;;;;;;;;10065334;28;20084;-70
2023/09/19 12:31:08;;;;;;;20.20;8.85;;;;;;;;;;10076235;28;20050;-69
2023/09/19 12:36:00;;;;;;;22.88;9.63;;;;;;;;;;10053424;28;20051;-70
2023/09/19 12:40:52;;;;;;;14.80;11.82;;;;;;;;;;10085197;28;20103;-70
2023/09/19 12:45:44;;;;;;;16.48;10.10;;;;;;;;;;10077329;28;20060;-70
2023/09/19 12:51:07;;;;;;;22.70;12.15;;;;;;;;;;10052661;28;20077;-68
2023/09/19 12:56:00;;;;;;;21.35;10.50;;;;;;;;;;10076319;28;20057;-70
2023/09/19 13:00:52;;;;;;;18.30;10.07;;;;;;;;;;10079050;28;20072;-69
2023/09/19 13:05:57;;;;;;;14.82;9.90;;;;;;;;;;10050869;28;20029;-70
2023/09/19 13:10:59;;;;;;;13.25;8.18;;;;;;;;;;10073782;28;20380;-69
2023/09/19 13:15:52;;;;;;;23.77;8.65;;;;;;;;;;10078874;28;20543;-67
2023/09/19 13:21:12;;;;;;;12.10;7.45;;;;;;;;;;10080165;28;20356;-70
2023/09/19 13:26:07;;;;;;;14.07;6.70;;;;;;;;;;10079060;28;20396;-71
2023/09/19 13:30:58;;;;;;;12.63;6.75;;;;;;;;;;10072788;28;20041;-68
2023/09/19 13:35:51;;;;;;;14.50;7.38;;;;;;;;;;10076022;28;20139;-68
2023/09/19 13:40:43;;;;;;;13.90;9.23;;;;;;;;;;10071806;28;20460;-68
2023/09/19 13:45:34;;;;;;;13.77;7.38;;;;;;;;;;10073986;28;20041;-70
2023/09/19 13:50:29;;;;;;;20.77;7.40;;;;;;;;;;10054176;28;20049;-70
2023/09/19 13:55:21;;;;;;;15.68;7.78;;;;;;;;;;10066966;28;20042;-70
2023/09/19 14:00:16;;;;;;;18.40;8.75;;;;;;;;;;10071261;28;20103;-69
2023/09/19 14:05:08;;;;;;;14.65;8.15;;;;;;;;;;10073399;28;20475;-68
2023/09/19 14:10:00;;;;;;;13.43;6.25;;;;;;;;;;10069577;28;20111;-70
2023/09/19 14:14:52;;;;;;;17.75;7.32;;;;;;;;;;10068630;28;20041;-70
2023/09/19 14:19:43;;;;;;;19.33;7.47;;;;;;;;;;10064190;28;20095;-69
2023/09/19 14:24:37;;;;;;;17.73;7.60;;;;;;;;;;10067674;28;20037;-69
2023/09/19 14:29:30;;;;;;;15.05;7.13;;;;;;;;;;10065161;28;20119;-70
2023/09/19 14:34:22;;;;;;;10.27;6.43;;;;;;;;;;10070322;28;20048;-69
2023/09/19 14:39:14;;;;;;;11.70;6.53;;;;;;;;;;10065746;28;20604;-70
2023/09/19 14:44:06;;;;;;;14.48;7.68;;;;;;;;;;10058000;28;20461;-69
2023/09/19 14:48:59;;;;;;;14.27;6.55;;;;;;;;;;10077882;28;20136;-70
2023/09/19 14:53:53;;;;;;;14.52;6.57;;;;;;;;;;10088774;28;20456;-70
2023/09/19 14:58:45;;;;;;;15.90;6.85;;;;;;;;;;10077490;28;20433;-70
2023/09/19 15:03:39;;;;;;;13.82;7.85;;;;;;;;;;10076001;28;20043;-68
2023/09/19 15:08:34;;;;;;;14.52;6.32;;;;;;;;;;10069266;28;20071;-70
2023/09/19 15:13:28;;;;;;;11.05;6.22;;;;;;;;;;10071993;28;20036;-68
2023/09/19 15:18:20;;;;;;;9.38;4.00;;;;;;;;;;10068031;28;20451;-70
2023/09/19 15:23:13;;;;;;;6.82;2.47;;;;;;;;;;10068783;28;20525;-70
2023/09/19 15:28:08;;;;;;;4.40;1.95;;;;;;;;;;10078970;28;20049;-69
2023/09/19 15:32:59;;;;;;;3.58;1.63;;;;;;;;;;10075015;28;20156;-70
2023/09/19 15:37:53;;;;;;;2.50;1.20;;;;;;;;;;10081703;28;20454;-70
2023/09/19 15:42:44;;;;;;;2.28;1.23;;;;;;;;;;10079043;28;20420;-70
2023/09/19 15:47:37;;;;;;;5.15;1.77;;;;;;;;;;10079878;28;20418;-69
2023/09/19 15:52:29;;;;;;;6.68;1.20;;;;;;;;;;10076486;28;20076;-69
2023/09/19 15:57:21;;;;;;;2.28;1.30;;;;;;;;;;10073280;28;20422;-68
2023/09/19 16:02:13;;;;;;;4.72;1.38;;;;;;;;;;10070296;28;20073;-69
2023/09/19 16:07:05;;;;;;;3.20;1.13;;;;;;;;;;10071883;28;20045;-69
2023/09/19 16:11:57;;;;;;;4.72;1.15;;;;;;;;;;10069557;28;20125;-69
2023/09/19 16:16:49;;;;;;;4.55;1.50;;;;;;;;;;10078178;28;20546;-70
2023/09/19 16:21:43;;;;;;;4.68;1.33;;;;;;;;;;10086283;28;20049;-71
2023/09/19 16:26:35;;;;;;;2.40;1.17;;;;;;;;;;10071637;28;20053;-71
2023/09/19 16:31:28;;;;;;;3.15;1.40;;;;;;;;;;10071832;28;20128;-71
2023/09/19 16:36:20;;;;;;;4.00;1.67;;;;;;;;;;10074527;28;20382;-71
2023/09/19 16:41:13;;;;;;;4.57;1.55;;;;;;;;;;10072349;28;20479;-71
2023/09/19 16:46:11;;;;;;;6.30;1.40;;;;;;;;;;10072768;28;20100;-72
2023/09/19 16:51:08;;;;;;;9.23;1.38;;;;;;;;;;10075152;28;20076;-71
2023/09/19 16:56:08;;;;;;;2.75;1.60;;;;;;;;;;10071430;28;20053;-72
2023/09/19 17:01:00;;;;;;;3.10;1.40;;;;;;;;;;10070978;28;20155;-70
2023/09/19 17:05:57;;;;;;;2.42;1.50;;;;;;;;;;10071811;28;20053;-72
2023/09/19 17:10:49;;;;;;;2.53;1.33;;;;;;;;;;10074339;28;20395;-71
2023/09/19 17:15:41;;;;;;;1.83;1.33;;;;;;;;;;10072363;28;20304;-71
2023/09/19 17:20:33;;;;;;;5.25;2.17;;;;;;;;;;10084093;28;20046;-71
2023/09/19 17:25:28;;;;;;;8.75;2.03;;;;;;;;;;10076544;28;20128;-71
2023/09/19 17:30:22;;;;;;;3.22;1.38;;;;;;;;;;10078561;28;20099;-70
2023/09/19 17:35:18;;;;;;;4.60;1.98;;;;;;;;;;10070931;28;20048;-69
2023/09/19 17:40:11;;;;;;;3.45;1.20;;;;;;;;;;10081626;28;20057;-72
2023/09/19 17:45:04;;;;;;;3.03;1.00;;;;;;;;;;10073150;28;20099;-72
2023/09/19 17:49:56;;;;;;;4.53;1.30;;;;;;;;;;10073797;28;20048;-72
2023/09/19 17:54:51;;;;;;;2.80;1.20;;;;;;;;;;10068606;28;20175;-71
2023/09/19 17:59:44;;;;;;;3.15;1.48;;;;;;;;;;10069876;28;20049;-71
2023/09/19 18:04:37;;;;;;;1.52;1.17;;;;;;;;;;10069276;28;20100;-72
2023/09/19 18:09:29;;;;;;;1.95;1.20;;;;;;;;;;10068473;28;20034;-72
2023/09/19 18:14:21;;;;;;;2.03;1.08;;;;;;;;;;10068180;28;20045;-72
2023/09/19 18:19:13;;;;;;;2.78;1.15;;;;;;;;;;10065983;28;20053;-71
2023/09/19 18:24:10;;;;;;;1.67;1.10;;;;;;;;;;10066402;28;20045;-72
2023/09/19 18:29:03;;;;;;;2.20;1.00;;;;;;;;;;10067701;28;20045;-71
2023/09/19 18:33:54;;;;;;;4.30;1.35;;;;;;;;;;10075790;28;20037;-71
2023/09/19 18:38:48;;;;;;;1.27;1.00;;;;;;;;;;10058163;28;20139;-72
2023/09/19 18:43:40;;;;;;;0.70;0.70;;;;;;;;;;10093807;28;20042;-71
2023/09/19 18:48:32;;;;;;;4.18;0.82;;;;;;;;;;10064842;28;20042;-71
2023/09/19 18:53:26;;;;;;;1.92;1.20;;;;;;;;;;10081590;28;20065;-72
2023/09/19 18:58:18;;;;;;;5.97;1.13;;;;;;;;;;10089267;28;20056;-72
2023/09/19 19:03:12;;;;;;;2.08;1.15;;;;;;;;;;10077148;28;20045;-70
2023/09/19 19:08:05;;;;;;;4.20;1.20;;;;;;;;;;10071628;28;20133;-71
2023/09/19 19:12:57;;;;;;;1.60;1.00;;;;;;;;;;10081894;28;20038;-71
2023/09/19 19:17:49;;;;;;;2.88;0.90;;;;;;;;;;10074292;28;20050;-72
2023/09/19 19:22:41;;;;;;;2.67;1.77;;;;;;;;;;10074077;28;20052;-71
2023/09/19 19:27:35;;;;;;;0.73;0.70;;;;;;;;;;10074230;28;20041;-71
2023/09/19 19:32:28;;;;;;;1.35;1.00;;;;;;;;;;10055819;28;20510;-72
2023/09/19 19:37:21;;;;;;;2.33;2.13;;;;;;;;;;10072395;28;20053;-71
2023/09/19 19:42:13;;;;;;;6.03;3.83;;;;;;;;;;10074297;28;20469;-71
2023/09/19 19:47:07;;;;;;;3.20;1.10;;;;;;;;;;10056916;28;20085;-71
2023/09/19 19:52:03;;;;;;;2.10;1.55;;;;;;;;;;10089290;28;20053;-72
2023/09/19 19:56:55;;;;;;;4.60;1.38;;;;;;;;;;10101667;28;20049;-69
2023/09/19 20:01:48;;;;;;;2.78;1.52;;;;;;;;;;10051557;28;20095;-70
2023/09/19 20:06:40;;;;;;;4.88;1.35;;;;;;;;;;10077398;28;20444;-70
2023/09/19 20:11:33;;;;;;;2.28;1.73;;;;;;;;;;10083904;28;20038;-70
2023/09/19 20:16:31;;;;;;;3.50;2.50;;;;;;;;;;10082935;28;20430;-71
2023/09/19 20:21:29;;;;;;;4.65;1.65;;;;;;;;;;10096288;28;20056;-70
2023/09/19 20:26:22;;;;;;;3.08;1.20;;;;;;;;;;10065529;28;20049;-70
2023/09/19 20:31:15;;;;;;;1.80;1.27;;;;;;;;;;10092388;28;20041;-69
2023/09/19 20:36:08;;;;;;;3.63;1.27;;;;;;;;;;10085248;28;20053;-69
2023/09/19 20:41:03;;;;;;;3.17;1.20;;;;;;;;;;10095636;28;20550;-71
2023/09/19 20:45:55;;;;;;;1.95;0.98;;;;;;;;;;10104813;28;20044;-71
2023/09/19 20:50:47;;;;;;;2.40;1.02;;;;;;;;;;10095201;28;20061;-70
2023/09/19 20:55:40;;;;;;;4.47;1.40;;;;;;;;;;10068882;28;20052;-71
2023/09/19 21:00:33;;;;;;;1.10;1.00;;;;;;;;;;10094183;28;20045;-71
2023/09/19 21:05:25;;;;;;;1.40;1.30;;;;;;;;;;10081516;28;20064;-72
2023/09/19 21:10:17;;;;;;;3.30;1.00;;;;;;;;;;10106561;28;20463;-71
2023/09/19 21:15:09;;;;;;;1.30;1.20;;;;;;;;;;10106536;28;20123;-71
2023/09/19 21:20:01;;;;;;;2.33;1.10;;;;;;;;;;10088384;28;20060;-72
2023/09/19 21:24:55;;;;;;;1.73;1.05;;;;;;;;;;10090817;28;20441;-72
2023/09/19 21:29:48;;;;;;;3.75;1.48;;;;;;;;;;10087545;28;20059;-73
2023/09/19 21:34:40;;;;;;;2.33;0.93;;;;;;;;;;10098379;28;20502;-72
2023/09/19 21:39:32;;;;;;;1.63;1.10;;;;;;;;;;10096434;28;20037;-72
2023/09/19 21:44:24;;;;;;;3.38;1.23;;;;;;;;;;10092564;28;20423;-71
2023/09/19 21:49:16;;;;;;;2.88;1.77;;;;;;;;;;10076257;28;20140;-72
2023/09/19 21:54:08;;;;;;;3.97;1.50;;;;;;;;;;10092720;28;20045;-71
2023/09/19 21:59:00;;;;;;;2.60;1.23;;;;;;;;;;10092495;28;20041;-72
2023/09/19 22:03:53;;;;;;;3.45;1.92;;;;;;;;;;10102543;28;20048;-72
2023/09/19 22:08:49;;;;;;;3.70;1.70;;;;;;;;;;10085088;28;20048;-71
2023/09/19 22:13:43;;;;;;;5.28;2.13;;;;;;;;;;10099427;28;20037;-70
2023/09/19 22:18:35;;;;;;;6.10;2.95;;;;;;;;;;10083063;28;20499;-70
2023/09/19 22:23:35;;;;;;;3.92;2.22;;;;;;;;;;10100835;28;20076;-70
2023/09/19 22:28:28;;;;;;;3.55;2.40;;;;;;;;;;10081611;28;20080;-71
2023/09/19 22:33:20;;;;;;;1.73;1.20;;;;;;;;;;10075023;28;20037;-72
2023/09/19 22:38:13;;;;;;;2.20;1.58;;;;;;;;;;10081011;28;20049;-71
2023/09/19 22:43:06;;;;;;;2.72;1.20;;;;;;;;;;10082164;28;20076;-71
2023/09/19 22:47:58;;;;;;;3.03;1.50;;;;;;;;;;10075377;28;20042;-72
2023/09/19 22:52:54;;;;;;;1.70;1.25;;;;;;;;;;10079628;28;20029;-72
2023/09/19 22:57:45;;;;;;;4.45;1.58;;;;;;;;;;10071256;28;20431;-71
2023/09/19 23:02:39;;;;;;;1.65;1.20;;;;;;;;;;10089820;28;20107;-71
2023/09/19 23:07:31;;;;;;;2.72;1.65;;;;;;;;;;10074441;28;20068;-72
2023/09/19 23:12:23;;;;;;;2.20;1.45;;;;;;;;;;10095225;28;20065;-72
2023/09/19 23:17:21;;;;;;;2.67;1.50;;;;;;;;;;10086951;28;20045;-71
2023/09/19 23:27:11;;;;;;;2.28;1.70;;;;;;;;;;10096340;28;20098;-71
2023/09/19 23:32:05;;;;;;;2.70;1.63;;;;;;;;;;10069010;28;20100;-71
2023/09/19 23:36:56;;;;;;;1.02;1.02;;;;;;;;;;10061707;28;20045;-72
2023/09/19 23:41:48;;;;;;;2.13;1.30;;;;;;;;;;10061246;28;20140;-71
2023/09/19 23:46:45;;;;;;;4.97;1.45;;;;;;;;;;10072351;28;20112;-70
2023/09/19 23:51:38;;;;;;;3.60;1.35;;;;;;;;;;10072444;28;20045;-72
2023/09/19 23:56:30;;;;;;;4.78;1.30;;;;;;;;;;10072269;28;20037;-70
